createdAt,value
2017-12-05T00:00:37.203Z,21.30
2017-12-05T00:03:05.256Z,21.30
2017-12-05T00:05:34.055Z,21.30
2017-12-05T00:08:02.951Z,21.30
2017-12-05T00:10:31.819Z,21.30
2017-12-05T00:12:59.986Z,21.30
2017-12-05T00:15:28.199Z,21.20
2017-12-05T00:17:57.007Z,21.30
2017-12-05T00:20:25.035Z,21.30
2017-12-05T00:22:53.214Z,21.30
2017-12-05T00:25:21.258Z,21.30
2017-12-05T00:27:49.302Z,21.20
2017-12-05T00:30:17.555Z,21.20
2017-12-05T00:32:46.342Z,21.10
2017-12-05T00:35:15.199Z,21.20
2017-12-05T00:37:43.375Z,21.20
2017-12-05T00:40:11.406Z,21.10
2017-12-05T00:42:39.491Z,21.10
2017-12-05T00:45:07.698Z,21.20
2017-12-05T00:47:35.966Z,21.10
2017-12-05T00:50:04.131Z,21.20
2017-12-05T00:52:32.311Z,21.20
2017-12-05T00:55:00.361Z,21.20
2017-12-05T00:57:28.435Z,21.20
2017-12-05T00:59:56.747Z,21.10
2017-12-05T01:02:24.808Z,21.10
2017-12-05T01:04:52.863Z,21.10
2017-12-05T01:07:21.028Z,21.10
2017-12-05T01:09:49.075Z,21.10
2017-12-05T01:12:17.860Z,21.10
2017-12-05T01:14:46.767Z,21.00
2017-12-05T01:17:14.778Z,21.00
2017-12-05T01:19:42.799Z,21.00
2017-12-05T01:22:11.732Z,20.90
2017-12-05T01:24:39.818Z,20.90
2017-12-05T01:27:07.835Z,20.90
2017-12-05T01:29:36.718Z,20.90
2017-12-05T01:32:05.468Z,20.90
2017-12-05T01:34:33.479Z,20.90
2017-12-05T01:37:02.355Z,20.90
2017-12-05T01:39:30.407Z,20.90
2017-12-05T01:41:58.438Z,20.80
2017-12-05T01:44:26.575Z,20.90
2017-12-05T01:46:54.714Z,20.80
2017-12-05T01:49:22.772Z,20.80
2017-12-05T01:51:50.966Z,20.80
2017-12-05T01:54:19.147Z,20.80
2017-12-05T01:56:47.187Z,20.80
2017-12-05T01:59:15.635Z,20.80
2017-12-05T02:01:43.864Z,20.80
2017-12-05T02:04:12.082Z,20.80
2017-12-05T02:06:40.400Z,20.70
2017-12-05T02:09:08.579Z,20.70
2017-12-05T02:11:36.611Z,20.70
2017-12-05T02:14:04.846Z,20.70
2017-12-05T02:16:32.911Z,20.70
2017-12-05T02:19:01.095Z,20.70
2017-12-05T02:21:29.371Z,20.70
2017-12-05T02:23:57.382Z,20.60
2017-12-05T02:26:25.532Z,20.60
2017-12-05T02:28:53.695Z,20.60
2017-12-05T02:31:21.752Z,20.70
2017-12-05T02:33:49.768Z,20.60
2017-12-05T02:36:17.915Z,20.60
2017-12-05T02:38:45.976Z,20.60
2017-12-05T02:41:14.028Z,20.60
2017-12-05T02:43:42.347Z,20.60
2017-12-05T02:46:10.548Z,20.60
2017-12-05T02:48:38.676Z,20.60
2017-12-05T02:51:06.982Z,20.60
2017-12-05T02:53:35.104Z,20.70
2017-12-05T02:56:03.386Z,20.60
2017-12-05T02:58:31.678Z,20.60
2017-12-05T03:00:59.973Z,20.60
2017-12-05T03:03:28.227Z,20.60
2017-12-05T03:05:56.524Z,20.70
2017-12-05T03:08:24.618Z,20.70
2017-12-05T03:10:52.721Z,20.70
2017-12-05T03:13:21.739Z,20.90
2017-12-05T03:15:49.827Z,20.80
2017-12-05T03:18:17.903Z,20.90
2017-12-05T03:20:46.211Z,21.00
2017-12-05T03:23:14.311Z,21.10
2017-12-05T03:25:43.111Z,21.60
2017-12-05T03:28:11.995Z,22.30
2017-12-05T03:30:40.771Z,23.50
2017-12-05T03:33:08.795Z,23.40
2017-12-05T03:35:36.934Z,25.10
2017-12-05T03:38:05.702Z,27.60
2017-12-05T03:40:33.782Z,27.50
2017-12-05T03:43:01.968Z,28.00
2017-12-05T03:45:30.768Z,29.70
2017-12-05T03:47:59.519Z,30.10
2017-12-05T03:50:27.835Z,30.10
2017-12-05T03:52:56.768Z,30.80
2017-12-05T03:55:24.843Z,30.80
2017-12-05T03:57:53.007Z,31.10
2017-12-05T04:00:21.027Z,30.60
2017-12-05T04:02:49.084Z,29.00
2017-12-05T04:05:17.402Z,27.70
2017-12-05T04:07:46.203Z,25.70
2017-12-05T04:10:14.251Z,25.70
2017-12-05T04:12:43.143Z,25.00
2017-12-05T04:15:11.912Z,24.80
2017-12-05T04:17:39.922Z,24.80
2017-12-05T04:20:08.802Z,24.80
2017-12-05T04:22:37.569Z,24.90
2017-12-05T04:25:05.628Z,24.90
2017-12-05T04:27:33.766Z,24.70
2017-12-05T04:30:01.783Z,24.70
2017-12-05T04:32:29.891Z,24.70
2017-12-05T04:34:58.783Z,25.20
2017-12-05T04:37:27.579Z,25.20
2017-12-05T04:39:56.362Z,24.80
2017-12-05T04:42:25.251Z,25.00
2017-12-05T04:44:54.039Z,24.80
2017-12-05T04:47:22.916Z,25.00
2017-12-05T04:49:51.826Z,25.00
2017-12-05T04:52:20.791Z,25.10
2017-12-05T04:54:48.967Z,25.10
2017-12-05T04:57:17.275Z,25.20
2017-12-05T04:59:46.164Z,25.40
2017-12-05T05:02:15.591Z,25.50
2017-12-05T05:04:43.902Z,25.50
2017-12-05T05:07:12.234Z,25.50
2017-12-05T05:09:41.224Z,25.10
2017-12-05T05:12:10.872Z,25.00
2017-12-05T05:14:38.935Z,25.00
2017-12-05T05:17:07.140Z,25.20
2017-12-05T05:19:35.406Z,25.30
2017-12-05T05:22:03.615Z,25.20
2017-12-05T05:24:31.645Z,25.50
2017-12-05T05:26:59.902Z,25.30
2017-12-05T05:29:28.079Z,25.50
2017-12-05T05:31:56.139Z,25.70
2017-12-05T05:34:25.104Z,25.70
2017-12-05T05:36:53.167Z,25.70
2017-12-05T05:39:21.359Z,25.40
2017-12-05T05:41:49.663Z,25.20
2017-12-05T05:44:17.720Z,25.50
2017-12-05T05:46:46.524Z,25.20
2017-12-05T05:49:15.699Z,25.40
2017-12-05T05:51:43.776Z,25.50
2017-12-05T05:54:12.532Z,25.90
2017-12-05T05:56:40.747Z,25.90
2017-12-05T05:59:09.523Z,25.70
2017-12-05T06:01:37.552Z,25.70
2017-12-05T06:04:05.724Z,26.00
2017-12-05T06:06:33.755Z,26.00
2017-12-05T06:09:02.703Z,25.90
2017-12-05T06:11:30.832Z,26.00
2017-12-05T06:13:59.623Z,25.80
2017-12-05T06:16:28.419Z,26.00
2017-12-05T06:18:56.647Z,26.00
2017-12-05T06:21:24.700Z,26.10
2017-12-05T06:23:52.710Z,26.30
2017-12-05T06:26:22.023Z,26.40
2017-12-05T06:28:50.783Z,26.20
2017-12-05T06:31:18.795Z,26.20
2017-12-05T06:33:47.691Z,26.10
2017-12-05T06:36:16.454Z,26.10
2017-12-05T06:38:44.486Z,26.10
2017-12-05T06:41:12.610Z,26.20
2017-12-05T06:43:41.409Z,26.20
2017-12-05T06:46:09.447Z,26.20
2017-12-05T06:48:37.602Z,26.20
2017-12-05T06:51:05.819Z,26.50
2017-12-05T06:53:34.779Z,26.00
2017-12-05T06:56:03.128Z,26.10
2017-12-05T06:58:31.504Z,26.30
2017-12-05T07:00:59.764Z,26.20
2017-12-05T07:03:28.907Z,26.80
2017-12-05T07:05:57.063Z,26.80
2017-12-05T07:08:25.135Z,26.70
2017-12-05T07:10:53.590Z,26.70
2017-12-05T07:13:22.607Z,26.70
2017-12-05T07:15:50.706Z,26.70
2017-12-05T07:18:18.980Z,27.00
2017-12-05T07:20:47.083Z,26.90
2017-12-05T07:23:15.184Z,26.70
2017-12-05T07:25:44.177Z,26.90
2017-12-05T07:28:13.179Z,26.90
2017-12-05T07:30:42.107Z,26.90
2017-12-05T07:33:10.343Z,26.90
2017-12-05T07:35:38.628Z,27.00
2017-12-05T07:38:06.736Z,26.90
2017-12-05T07:40:35.031Z,27.20
2017-12-05T07:43:03.203Z,27.40
2017-12-05T07:45:31.504Z,27.10
2017-12-05T07:47:59.735Z,27.00
2017-12-05T07:50:27.981Z,27.20
2017-12-05T07:52:56.795Z,27.10
2017-12-05T07:55:24.987Z,27.10
2017-12-05T07:57:53.051Z,27.20
2017-12-05T08:00:21.195Z,27.20
2017-12-05T08:02:50.112Z,27.20
2017-12-05T08:05:18.271Z,27.20
2017-12-05T08:07:46.523Z,27.20
2017-12-05T08:10:15.466Z,27.30
2017-12-05T08:12:43.834Z,27.30
2017-12-05T08:15:11.903Z,27.60
2017-12-05T08:17:40.237Z,27.60
2017-12-05T08:20:08.383Z,27.50
2017-12-05T08:22:36.608Z,27.40
2017-12-05T08:25:05.631Z,27.40
2017-12-05T08:27:33.771Z,27.40
2017-12-05T08:30:02.655Z,27.20
2017-12-05T08:32:30.847Z,27.10
2017-12-05T08:34:59.767Z,27.50
2017-12-05T08:37:28.123Z,27.50
2017-12-05T08:39:57.167Z,27.50
2017-12-05T08:42:25.459Z,27.50
2017-12-05T08:44:53.723Z,27.40
2017-12-05T08:47:21.983Z,27.60
2017-12-05T08:49:50.223Z,27.80
2017-12-05T08:52:18.406Z,27.90
2017-12-05T08:54:47.492Z,27.70
2017-12-05T08:57:16.354Z,27.60
2017-12-05T08:59:44.467Z,27.60
2017-12-05T09:02:13.531Z,27.80
2017-12-05T09:04:41.613Z,27.80
2017-12-05T09:07:09.915Z,27.90
2017-12-05T09:09:38.859Z,27.70
2017-12-05T09:12:06.950Z,27.70
2017-12-05T09:14:35.354Z,27.80
2017-12-05T09:17:04.493Z,27.90
2017-12-05T09:19:32.779Z,27.90
2017-12-05T09:22:00.903Z,27.80
2017-12-05T09:24:29.884Z,27.80
2017-12-05T09:26:58.113Z,27.80
2017-12-05T09:29:26.323Z,27.80
2017-12-05T09:31:54.663Z,27.80
2017-12-05T09:34:22.911Z,27.80
2017-12-05T09:36:51.876Z,27.90
2017-12-05T09:39:20.143Z,28.00
2017-12-05T09:41:48.386Z,28.00
2017-12-05T09:44:16.568Z,28.00
2017-12-05T09:46:44.839Z,27.70
2017-12-05T09:49:13.055Z,27.60
2017-12-05T09:51:41.247Z,27.60
2017-12-05T09:54:09.596Z,27.70
2017-12-05T09:56:37.715Z,27.70
2017-12-05T09:59:06.654Z,27.70
2017-12-05T10:01:35.092Z,27.70
2017-12-05T10:04:04.084Z,27.80
2017-12-05T10:06:33.135Z,27.90
2017-12-05T10:09:01.370Z,27.90
2017-12-05T10:11:29.511Z,27.70
2017-12-05T10:13:57.645Z,27.70
2017-12-05T10:16:26.067Z,27.80
2017-12-05T10:18:54.250Z,27.70
2017-12-05T10:21:23.164Z,27.20
2017-12-05T10:23:52.231Z,27.10
2017-12-05T10:26:20.323Z,27.10
2017-12-05T10:28:49.312Z,27.10
2017-12-05T10:31:18.404Z,27.20
2017-12-05T10:33:47.294Z,27.30
2017-12-05T10:36:15.551Z,27.30
2017-12-05T10:38:43.839Z,27.30
2017-12-05T10:41:11.987Z,27.30
2017-12-05T10:43:40.251Z,27.40
2017-12-05T10:46:08.537Z,27.40
2017-12-05T10:48:36.724Z,27.40
2017-12-05T10:51:04.939Z,27.30
2017-12-05T10:53:33.959Z,27.20
2017-12-05T10:56:02.242Z,27.20
2017-12-05T10:58:30.314Z,27.00
2017-12-05T11:00:58.510Z,27.20
2017-12-05T11:03:26.672Z,27.30
2017-12-05T11:05:54.756Z,27.40
2017-12-05T11:08:22.946Z,27.40
2017-12-05T11:10:51.363Z,27.30
2017-12-05T11:13:20.176Z,27.30
2017-12-05T11:15:48.395Z,27.30
2017-12-05T11:18:16.558Z,27.30
2017-12-05T11:20:44.771Z,27.40
2017-12-05T11:23:13.094Z,27.40
2017-12-05T11:25:41.295Z,27.40
2017-12-05T11:28:09.636Z,27.50
2017-12-05T11:30:37.931Z,27.40
2017-12-05T11:33:06.083Z,27.30
2017-12-05T11:35:34.924Z,27.20
2017-12-05T11:38:03.163Z,27.20
2017-12-05T11:40:31.179Z,27.20
2017-12-05T11:42:59.279Z,27.10
2017-12-05T11:45:28.182Z,27.00
2017-12-05T11:47:57.010Z,26.90
2017-12-05T11:50:25.099Z,26.90
2017-12-05T12:05:59.330Z,27.10
2017-12-05T12:08:28.171Z,26.90
2017-12-05T12:10:56.186Z,26.80
2017-12-05T12:13:24.417Z,26.70
2017-12-05T12:15:52.450Z,26.70
2017-12-05T12:18:20.671Z,26.70
2017-12-05T12:20:48.880Z,26.70
2017-12-05T12:23:16.950Z,26.60
2017-12-05T12:25:45.050Z,26.60
2017-12-05T12:28:13.255Z,26.50
2017-12-05T12:30:41.275Z,26.50
2017-12-05T12:33:09.299Z,26.50
2017-12-05T12:35:38.147Z,26.50
2017-12-05T12:38:06.206Z,26.40
2017-12-05T12:40:34.353Z,26.40
2017-12-05T12:43:02.555Z,26.30
2017-12-05T12:45:30.656Z,26.30
2017-12-05T12:47:58.686Z,26.20
2017-12-05T12:50:26.819Z,26.20
2017-12-05T12:52:55.579Z,26.00
2017-12-05T12:55:23.727Z,26.00
2017-12-05T12:57:51.888Z,26.00
2017-12-05T13:00:19.913Z,26.10
2017-12-05T13:02:48.699Z,25.90
2017-12-05T13:05:16.835Z,25.90
2017-12-05T13:07:44.876Z,25.80
2017-12-05T13:10:12.942Z,25.80
2017-12-05T13:12:41.814Z,25.60
2017-12-05T13:15:09.855Z,25.60
2017-12-05T13:17:37.919Z,25.60
2017-12-05T13:20:06.183Z,25.50
2017-12-05T13:22:34.276Z,25.50
2017-12-05T13:25:02.349Z,25.40
2017-12-05T13:27:30.559Z,25.40
2017-12-05T13:29:59.363Z,25.30
2017-12-05T13:32:28.176Z,25.20
2017-12-05T13:34:56.352Z,25.20
2017-12-05T13:37:24.390Z,25.20
2017-12-05T13:39:53.168Z,25.10
2017-12-05T13:42:21.330Z,25.10
2017-12-05T13:44:49.419Z,25.10
2017-12-05T13:47:17.492Z,25.00
2017-12-05T13:49:45.672Z,24.90
2017-12-05T13:52:13.759Z,25.00
2017-12-05T13:54:42.539Z,24.80
2017-12-05T13:57:11.589Z,24.80
2017-12-05T13:59:39.780Z,24.80
2017-12-05T14:02:07.874Z,24.90
2017-12-05T14:04:36.130Z,24.80
2017-12-05T14:07:04.531Z,24.80
2017-12-05T14:09:32.584Z,24.70
2017-12-05T14:12:00.847Z,24.70
2017-12-05T14:14:29.060Z,24.80
2017-12-05T14:16:57.123Z,24.70
2017-12-05T14:19:25.971Z,24.70
2017-12-05T14:21:54.183Z,24.60
2017-12-05T14:24:22.370Z,24.60
2017-12-05T14:26:50.609Z,24.60
2017-12-05T14:29:18.679Z,24.60
2017-12-05T14:31:46.756Z,24.60
2017-12-05T14:34:15.806Z,24.60
2017-12-05T14:36:45.024Z,24.60
2017-12-05T14:39:13.063Z,24.50
2017-12-05T14:41:41.292Z,24.50
2017-12-05T14:44:09.366Z,24.50
2017-12-05T14:46:37.435Z,24.50
2017-12-05T14:49:05.672Z,24.50
2017-12-05T14:51:34.515Z,24.50
2017-12-05T14:54:03.405Z,24.50
2017-12-05T14:56:31.830Z,24.50
2017-12-05T14:59:00.074Z,24.40
2017-12-05T15:01:28.156Z,24.40
2017-12-05T15:03:56.319Z,24.40
2017-12-05T15:06:24.488Z,24.30
2017-12-05T15:08:52.553Z,24.30
2017-12-05T15:11:20.751Z,24.30
2017-12-05T15:13:48.844Z,24.30
2017-12-05T15:16:16.927Z,24.30
2017-12-05T15:18:45.139Z,24.30
2017-12-05T15:21:13.220Z,24.20
2017-12-05T15:23:41.438Z,24.20
2017-12-05T15:26:09.651Z,24.20
2017-12-05T15:28:38.443Z,24.10
2017-12-05T15:31:07.282Z,24.20
2017-12-05T15:33:35.467Z,24.20
2017-12-05T15:36:03.735Z,24.20
2017-12-05T15:38:31.803Z,24.10
2017-12-05T15:41:00.008Z,24.10
2017-12-05T15:43:28.146Z,24.10
2017-12-05T15:45:56.217Z,24.10
2017-12-05T15:48:24.388Z,24.00
2017-12-05T15:50:52.456Z,24.00
2017-12-05T15:53:20.487Z,24.00
2017-12-05T15:55:49.417Z,24.00
2017-12-05T15:58:17.511Z,24.00
2017-12-05T16:00:45.640Z,24.10
2017-12-05T16:03:14.555Z,24.00
2017-12-05T16:05:42.682Z,24.10
2017-12-05T16:08:10.731Z,24.00
2017-12-05T16:10:38.883Z,24.00
2017-12-05T16:13:07.007Z,24.00
2017-12-05T16:15:35.134Z,24.00
2017-12-05T16:18:03.329Z,24.00
2017-12-05T16:20:31.555Z,23.90
2017-12-05T16:23:00.371Z,23.90
2017-12-05T16:25:28.572Z,23.90
2017-12-05T16:27:56.595Z,23.90
2017-12-05T16:30:25.764Z,23.90
2017-12-05T16:32:54.671Z,23.80
2017-12-05T16:35:23.527Z,23.70
2017-12-05T16:37:51.624Z,23.70
2017-12-05T16:40:19.827Z,23.60
2017-12-05T16:42:48.595Z,23.70
2017-12-05T16:45:17.406Z,23.60
2017-12-05T16:47:45.562Z,23.60
2017-12-05T16:50:14.476Z,23.50
2017-12-05T16:52:42.528Z,23.50
2017-12-05T16:55:11.464Z,23.60
2017-12-05T16:57:39.515Z,23.60
2017-12-05T17:00:07.816Z,23.50
2017-12-05T17:02:36.087Z,23.50
2017-12-05T17:05:04.222Z,23.50
2017-12-05T17:07:33.015Z,23.30
2017-12-05T17:10:01.963Z,23.40
2017-12-05T17:12:30.376Z,23.30
2017-12-05T17:14:58.860Z,23.50
2017-12-05T17:17:27.060Z,23.50
2017-12-05T17:19:55.912Z,23.50
2017-12-05T17:22:24.052Z,23.40
2017-12-05T17:24:52.232Z,23.40
2017-12-05T17:27:20.255Z,23.40
2017-12-05T17:29:49.047Z,23.30
2017-12-05T17:32:17.976Z,23.30
2017-12-05T17:34:46.051Z,23.30
2017-12-05T17:37:14.128Z,23.20
2017-12-05T17:39:42.328Z,23.20
2017-12-05T17:42:10.351Z,23.10
2017-12-05T17:44:39.130Z,23.10
2017-12-05T17:47:08.011Z,23.00
2017-12-05T17:49:38.909Z,23.00
2017-12-05T17:52:07.107Z,23.00
2017-12-05T17:54:35.300Z,23.00
2017-12-05T17:57:03.323Z,23.10
2017-12-05T17:59:31.403Z,22.90
2017-12-05T18:01:59.599Z,22.90
2017-12-05T18:04:27.714Z,22.90
2017-12-05T18:06:56.624Z,22.80
2017-12-05T18:09:24.895Z,22.80
2017-12-05T18:11:53.063Z,22.90
2017-12-05T18:14:22.115Z,23.00
2017-12-05T18:16:50.388Z,23.00
2017-12-05T18:19:18.667Z,23.00
2017-12-05T18:21:46.846Z,23.10
2017-12-05T18:24:15.136Z,23.00
2017-12-05T18:26:43.230Z,23.00
2017-12-05T18:29:12.184Z,22.90
2017-12-05T18:31:40.386Z,22.80
2017-12-05T18:34:08.591Z,22.80
2017-12-05T18:36:36.807Z,22.70
2017-12-05T18:39:05.172Z,22.70
2017-12-05T18:41:33.287Z,22.70
2017-12-05T18:44:01.492Z,22.70
2017-12-05T18:46:30.475Z,22.60
2017-12-05T18:48:59.355Z,22.60
2017-12-05T18:51:27.701Z,22.60
2017-12-05T18:53:56.164Z,22.60
2017-12-05T18:56:24.438Z,22.60
2017-12-05T18:58:52.576Z,22.60
2017-12-05T19:01:21.663Z,22.40
2017-12-05T19:03:49.898Z,22.40
2017-12-05T19:06:18.075Z,22.50
2017-12-05T19:08:46.516Z,22.50
2017-12-05T19:11:15.443Z,22.40
2017-12-05T19:13:43.667Z,22.40
2017-12-05T19:16:12.041Z,22.40
2017-12-05T19:18:40.476Z,22.40
2017-12-05T19:21:08.745Z,22.40
2017-12-05T19:23:37.139Z,22.40
2017-12-05T19:26:05.350Z,22.40
2017-12-05T19:28:33.531Z,22.40
2017-12-05T19:31:01.886Z,22.40
2017-12-05T19:33:30.254Z,22.40
2017-12-05T19:35:58.431Z,22.30
2017-12-05T19:38:26.686Z,22.30
2017-12-05T19:40:54.877Z,22.20
2017-12-05T19:43:23.076Z,22.20
2017-12-05T19:45:51.483Z,22.20
2017-12-05T19:48:19.747Z,22.20
2017-12-05T19:50:48.063Z,22.20
2017-12-05T19:53:16.415Z,22.20
2017-12-05T19:55:44.867Z,22.10
2017-12-05T19:58:13.132Z,22.10
2017-12-05T20:00:41.515Z,22.10
2017-12-05T20:03:09.579Z,22.10
2017-12-05T20:05:37.755Z,21.90
2017-12-05T20:08:05.943Z,21.90
2017-12-05T20:10:34.051Z,21.90
2017-12-05T20:13:02.144Z,21.90
2017-12-05T20:15:31.161Z,21.90
2017-12-05T20:17:59.387Z,21.90
2017-12-05T20:20:27.524Z,21.90
2017-12-05T20:22:55.902Z,21.90
2017-12-05T20:25:24.207Z,21.90
2017-12-05T20:27:52.491Z,21.80
2017-12-05T20:30:20.834Z,21.80
2017-12-05T20:32:49.016Z,21.80
2017-12-05T20:35:17.140Z,21.70
2017-12-05T20:37:45.548Z,21.70
2017-12-05T20:40:13.762Z,21.70
2017-12-05T20:42:42.029Z,21.60
2017-12-05T20:45:10.452Z,21.60
2017-12-05T20:47:38.728Z,21.60
2017-12-05T20:50:06.738Z,21.50
2017-12-05T20:52:34.879Z,21.60
2017-12-05T20:55:02.929Z,21.60
2017-12-05T20:57:31.186Z,21.60
2017-12-05T20:59:59.471Z,21.50
2017-12-05T21:02:27.516Z,21.40
2017-12-05T21:04:55.544Z,21.50
2017-12-05T21:07:23.676Z,21.50
2017-12-05T21:09:51.691Z,21.40
2017-12-05T21:12:19.695Z,21.40
2017-12-05T21:14:47.841Z,21.30
2017-12-05T21:17:15.887Z,21.20
2017-12-05T21:19:43.902Z,21.20
2017-12-05T21:22:12.815Z,21.00
2017-12-05T21:24:40.859Z,21.00
2017-12-05T21:27:09.780Z,21.00
2017-12-05T21:29:37.933Z,20.90
2017-12-05T21:32:06.687Z,20.90
2017-12-05T21:34:34.690Z,20.90
2017-12-05T21:37:03.570Z,20.80
2017-12-05T21:39:31.592Z,20.80
2017-12-05T21:41:59.644Z,20.80
2017-12-05T21:44:27.811Z,20.70
2017-12-05T21:46:56.558Z,20.60
2017-12-05T21:49:24.566Z,20.60
2017-12-05T21:51:53.474Z,20.60
2017-12-05T21:54:21.493Z,20.60
2017-12-05T21:56:49.502Z,20.60
2017-12-05T21:59:18.538Z,20.60
2017-12-05T22:01:46.550Z,20.60
2017-12-05T22:04:14.607Z,20.60
2017-12-05T22:06:42.742Z,20.70
2017-12-05T22:09:10.755Z,20.60
2017-12-05T22:11:38.787Z,20.60
2017-12-05T22:14:06.956Z,20.60
2017-12-05T22:16:35.003Z,20.60
2017-12-05T22:19:03.793Z,20.50
2017-12-05T22:21:32.801Z,20.50
2017-12-05T22:24:00.846Z,20.50
2017-12-05T22:26:28.885Z,20.60
2017-12-05T22:28:57.055Z,20.50
2017-12-05T22:31:25.115Z,20.40
2017-12-05T22:46:41.943Z,20.80
2017-12-05T22:49:09.968Z,20.50
2017-12-05T22:51:38.029Z,20.30
2017-12-05T22:54:06.943Z,20.20
2017-12-05T22:56:34.980Z,20.20
2017-12-05T22:59:03.754Z,20.00
2017-12-05T23:01:32.033Z,20.00
2017-12-05T23:04:00.083Z,19.90
2017-12-05T23:06:28.181Z,20.00
2017-12-05T23:08:57.107Z,20.00
2017-12-05T23:11:25.873Z,20.00
2017-12-05T23:13:53.919Z,20.00
2017-12-05T23:16:22.065Z,20.00
2017-12-05T23:18:50.137Z,20.00
2017-12-05T23:21:18.195Z,19.90
2017-12-05T23:23:46.343Z,19.90
2017-12-05T23:26:14.372Z,19.90
2017-12-05T23:28:42.411Z,19.90
2017-12-05T23:31:10.591Z,19.80
2017-12-05T23:33:38.625Z,19.80
2017-12-05T23:36:06.691Z,19.80
2017-12-05T23:38:34.985Z,19.80
2017-12-05T23:41:03.799Z,19.70
2017-12-05T23:43:32.225Z,19.70
2017-12-05T23:46:00.470Z,19.70
2017-12-05T23:48:28.526Z,19.70
2017-12-05T23:50:57.304Z,19.60
2017-12-05T23:53:26.347Z,19.60
2017-12-05T23:55:54.387Z,19.60
2017-12-05T23:58:22.407Z,19.70
